Mentoras — SVA4822 — position and weather

sailwx.info

Track history (hours):
 
Tides and Currents Weather Stations Pressure Air Temp Water Temp Dewpoint Dewpoint Depression Visibility Wind Speed Wind Dir Waves Ship Positions

Mentoras

Last reported at 2015-May-23 23:29 UTC. Time now 2015-May-24 17:15 UTC.
Position N 35°21' E 025°09'.

Length 30 m.

Type: Ship. MMSI: 239651400.

Date/timePositionNaut miles runAvg speedWind from/ knotsBaromVisibWave heightAir tempDewpointWater temp
2015-May-23 23:29N 35°21' E 025°09'0 0.0
2015-May-23 22:31N 35°21' E 025°09'0 0.0
2015-May-23 21:31N 35°21' E 025°09'0 0.0
2015-May-23 06:31N 35°21' E 025°09'0 0.0
2015-May-23 05:31N 35°21' E 025°09'0 0.0
2015-May-23 04:13N 35°21' E 025°09'0 0.0
2015-May-21 16:19N 35°21' E 025°09'6 7.2
2015-May-21 15:31N 35°25' E 025°04'28 9.2
2015-May-21 12:29N 35°28' E 024°30'  
2015-May-18 20:05N 35°29' E 024°12'16 8.6
2015-May-18 18:11N 35°28' E 024°33'9 8.7
2015-May-18 17:11N 35°27' E 024°43'5 8.5
2015-May-18 16:33N 35°27' E 024°50'9 8.1
2015-May-18 15:23N 35°26' E 025°01'7 8.7
2015-May-18 14:34N 35°22' E 025°09'1 0.8
2015-May-18 13:22N 35°21' E 025°09'0 0.0
2015-May-18 12:07N 35°21' E 025°09'0 0.0
2015-May-18 11:31N 35°21' E 025°09'0 0.0
2015-May-18 10:23N 35°21' E 025°09'0 0.0
2015-May-18 04:14N 35°21' E 025°09'0 0.2
2015-May-18 03:13N 35°21' E 025°09'0 0.0
2015-May-18 02:31N 35°21' E 025°09'0 0.0
2015-May-18 00:25N 35°21' E 025°09'0 0.0
2015-May-17 22:25N 35°21' E 025°09'0 0.0
2015-May-17 21:31N 35°21' E 025°09'0 0.0
2015-May-17 20:25N 35°21' E 025°09'0 0.0
2015-May-17 19:31N 35°21' E 025°09'0 0.0
2015-May-17 18:31N 35°21' E 025°09'0 0.0
2015-May-17 16:25N 35°21' E 025°09'0 0.0
2015-May-17 15:31N 35°21' E 025°09'0 0.0
2015-May-17 14:31N 35°21' E 025°09'0 0.0
2015-May-17 07:31N 35°21' E 025°09'0 0.0
2015-May-17 05:16N 35°21' E 025°09'0 0.0
2015-May-17 04:28N 35°21' E 025°09'0 0.0
2015-May-17 03:25N 35°21' E 025°09'0 0.0
2015-May-17 01:10N 35°21' E 025°09'0 0.0
2015-May-17 00:25N 35°21' E 025°09'0 0.0
2015-May-16 23:31N 35°21' E 025°09'0 0.0
2015-May-16 21:31N 35°21' E 025°09'0 0.0
2015-May-16 19:31N 35°21' E 025°09'0 0.0
2015-May-16 06:33N 35°21' E 025°09'0 0.0
2015-May-16 05:31N 35°21' E 025°09'0 0.0
2015-May-15 18:31N 35°21' E 025°09'5 0.2
2015-May-14 14:33N 35°21' E 025°03'0 0.0
2015-May-14 12:24N 35°21' E 025°03'  
Track history (hours):
 
Tides and Currents Weather Stations Pressure Air Temp Water Temp Dewpoint Dewpoint Depression Visibility Wind Speed Wind Dir Waves Ship Positions

Mentoras

Last reported at 2015-May-23 23:29 UTC. Time now 2015-May-24 17:15 UTC.
Position N 35°21' E 025°09'.

Length 30 m.

Type: Ship. MMSI: 239651400.

Date/timePositionNaut miles runAvg speedWind from/ knotsBaromVisibWave heightAir tempDewpointWater temp
2015-May-23 23:29N 35°21' E 025°09'0 0.0
2015-May-23 22:31N 35°21' E 025°09'0 0.0
2015-May-23 21:31N 35°21' E 025°09'0 0.0
2015-May-23 06:31N 35°21' E 025°09'0 0.0
2015-May-23 05:31N 35°21' E 025°09'0 0.0
2015-May-23 04:13N 35°21' E 025°09'0 0.0
2015-May-21 16:19N 35°21' E 025°09'6 7.2
2015-May-21 15:31N 35°25' E 025°04'28 9.2
2015-May-21 12:29N 35°28' E 024°30'  
2015-May-18 20:05N 35°29' E 024°12'16 8.6
2015-May-18 18:11N 35°28' E 024°33'9 8.7
2015-May-18 17:11N 35°27' E 024°43'5 8.5
2015-May-18 16:33N 35°27' E 024°50'9 8.1
2015-May-18 15:23N 35°26' E 025°01'7 8.7
2015-May-18 14:34N 35°22' E 025°09'1 0.8
2015-May-18 13:22N 35°21' E 025°09'0 0.0
2015-May-18 12:07N 35°21' E 025°09'0 0.0
2015-May-18 11:31N 35°21' E 025°09'0 0.0
2015-May-18 10:23N 35°21' E 025°09'0 0.0
2015-May-18 04:14N 35°21' E 025°09'0 0.2
2015-May-18 03:13N 35°21' E 025°09'0 0.0
2015-May-18 02:31N 35°21' E 025°09'0 0.0
2015-May-18 00:25N 35°21' E 025°09'0 0.0
2015-May-17 22:25N 35°21' E 025°09'0 0.0
2015-May-17 21:31N 35°21' E 025°09'0 0.0
2015-May-17 20:25N 35°21' E 025°09'0 0.0
2015-May-17 19:31N 35°21' E 025°09'0 0.0
2015-May-17 18:31N 35°21' E 025°09'0 0.0
2015-May-17 16:25N 35°21' E 025°09'0 0.0
2015-May-17 15:31N 35°21' E 025°09'0 0.0
2015-May-17 14:31N 35°21' E 025°09'0 0.0
2015-May-17 07:31N 35°21' E 025°09'0 0.0
2015-May-17 05:16N 35°21' E 025°09'0 0.0
2015-May-17 04:28N 35°21' E 025°09'0 0.0
2015-May-17 03:25N 35°21' E 025°09'0 0.0
2015-May-17 01:10N 35°21' E 025°09'0 0.0
2015-May-17 00:25N 35°21' E 025°09'0 0.0
2015-May-16 23:31N 35°21' E 025°09'0 0.0
2015-May-16 21:31N 35°21' E 025°09'0 0.0
2015-May-16 19:31N 35°21' E 025°09'0 0.0
2015-May-16 06:33N 35°21' E 025°09'0 0.0
2015-May-16 05:31N 35°21' E 025°09'0 0.0
2015-May-15 18:31N 35°21' E 025°09'5 0.2
2015-May-14 14:33N 35°21' E 025°03'0 0.0
2015-May-14 12:24N 35°21' E 025°03'  

Dump ship's entire track history